sensor_id;sensor_type;location;lat;lon;timestamp;pressure;altitude;pressure_sealevel;temperature
75822;BMP180;64454;51.984;9.838;2023-01-10T00:01:44;99441.00;;;7.50
75822;BMP180;64454;51.984;9.838;2023-01-10T00:04:11;99447.00;;;7.60
75822;BMP180;64454;51.984;9.838;2023-01-10T00:06:40;99453.00;;;7.60
75822;BMP180;64454;51.984;9.838;2023-01-10T00:09:08;99452.00;;;7.50
75822;BMP180;64454;51.984;9.838;2023-01-10T00:11:35;99458.00;;;7.60
75822;BMP180;64454;51.984;9.838;2023-01-10T00:14:19;99466.00;;;7.60
75822;BMP180;64454;51.984;9.838;2023-01-10T00:16:46;99466.00;;;7.70
75822;BMP180;64454;51.984;9.838;2023-01-10T00:19:13;99474.00;;;7.80
75822;BMP180;64454;51.984;9.838;2023-01-10T00:21:41;99476.00;;;7.50
75822;BMP180;64454;51.984;9.838;2023-01-10T00:24:09;99491.00;;;7.40
75822;BMP180;64454;51.984;9.838;2023-01-10T00:26:43;99494.00;;;7.60
75822;BMP180;64454;51.984;9.838;2023-01-10T00:29:12;99498.00;;;7.60
75822;BMP180;64454;51.984;9.838;2023-01-10T00:31:40;99498.00;;;7.70
75822;BMP180;64454;51.984;9.838;2023-01-10T00:34:07;99500.00;;;7.60
75822;BMP180;64454;51.984;9.838;2023-01-10T00:36:34;99505.00;;;7.70
75822;BMP180;64454;51.984;9.838;2023-01-10T00:39:02;99502.00;;;7.60
75822;BMP180;64454;51.984;9.838;2023-01-10T00:41:34;99508.00;;;7.70
75822;BMP180;64454;51.984;9.838;2023-01-10T00:44:19;99505.00;;;7.60
75822;BMP180;64454;51.984;9.838;2023-01-10T00:46:45;99520.00;;;7.60
75822;BMP180;64454;51.984;9.838;2023-01-10T00:49:12;99514.00;;;7.60
75822;BMP180;64454;51.984;9.838;2023-01-10T00:51:40;99520.00;;;7.60
75822;BMP180;64454;51.984;9.838;2023-01-10T00:54:11;99520.00;;;7.70
75822;BMP180;64454;51.984;9.838;2023-01-10T00:56:38;99533.00;;;7.80
75822;BMP180;64454;51.984;9.838;2023-01-10T00:59:05;99547.00;;;7.60
75822;BMP180;64454;51.984;9.838;2023-01-10T01:01:34;99546.00;;;7.60
75822;BMP180;64454;51.984;9.838;2023-01-10T01:04:00;99554.00;;;7.70
75822;BMP180;64454;51.984;9.838;2023-01-10T01:06:28;99557.00;;;7.70
75822;BMP180;64454;51.984;9.838;2023-01-10T01:08:54;99557.00;;;7.60
75822;BMP180;64454;51.984;9.838;2023-01-10T01:11:24;99570.00;;;7.90
75822;BMP180;64454;51.984;9.838;2023-01-10T01:13:51;99574.00;;;7.80
75822;BMP180;64454;51.984;9.838;2023-01-10T01:16:18;99590.00;;;7.60
75822;BMP180;64454;51.984;9.838;2023-01-10T01:18:45;99597.00;;;7.90
75822;BMP180;64454;51.984;9.838;2023-01-10T01:21:12;99597.00;;;7.60
75822;BMP180;64454;51.984;9.838;2023-01-10T01:23:38;99599.00;;;7.80
75822;BMP180;64454;51.984;9.838;2023-01-10T01:26:05;99615.00;;;7.60
75822;BMP180;64454;51.984;9.838;2023-01-10T01:28:33;99614.00;;;7.60
75822;BMP180;64454;51.984;9.838;2023-01-10T01:31:06;99625.00;;;7.60
75822;BMP180;64454;51.984;9.838;2023-01-10T01:33:33;99624.00;;;7.60
75822;BMP180;64454;51.984;9.838;2023-01-10T01:36:00;99627.00;;;7.60
75822;BMP180;64454;51.984;9.838;2023-01-10T01:38:27;99634.00;;;7.50
75822;BMP180;64454;51.984;9.838;2023-01-10T01:40:54;99633.00;;;7.70
75822;BMP180;64454;51.984;9.838;2023-01-10T01:43:24;99652.00;;;7.30
75822;BMP180;64454;51.984;9.838;2023-01-10T01:45:54;99654.00;;;7.60
75822;BMP180;64454;51.984;9.838;2023-01-10T01:48:31;99654.00;;;7.60
75822;BMP180;64454;51.984;9.838;2023-01-10T01:51:07;99663.00;;;7.50
75822;BMP180;64454;51.984;9.838;2023-01-10T01:53:41;99672.00;;;7.30
75822;BMP180;64454;51.984;9.838;2023-01-10T01:56:16;99675.00;;;7.40
75822;BMP180;64454;51.984;9.838;2023-01-10T01:58:48;99680.00;;;7.30
75822;BMP180;64454;51.984;9.838;2023-01-10T02:01:18;99690.00;;;7.40
75822;BMP180;64454;51.984;9.838;2023-01-10T02:03:53;99683.00;;;7.30
75822;BMP180;64454;51.984;9.838;2023-01-10T02:06:23;99694.00;;;7.30
75822;BMP180;64454;51.984;9.838;2023-01-10T02:08:58;99694.00;;;7.30
75822;BMP180;64454;51.984;9.838;2023-01-10T02:11:29;99704.00;;;7.40
75822;BMP180;64454;51.984;9.838;2023-01-10T02:13:58;99712.00;;;7.30
75822;BMP180;64454;51.984;9.838;2023-01-10T02:16:26;99713.00;;;7.20
75822;BMP180;64454;51.984;9.838;2023-01-10T02:18:52;99726.00;;;7.20
75822;BMP180;64454;51.984;9.838;2023-01-10T02:21:49;99727.00;;;7.40
75822;BMP180;64454;51.984;9.838;2023-01-10T02:25:21;99731.00;;;7.40
75822;BMP180;64454;51.984;9.838;2023-01-10T02:31:27;99750.00;;;7.20
75822;BMP180;64454;51.984;9.838;2023-01-10T02:34:07;99747.00;;;7.10
75822;BMP180;64454;51.984;9.838;2023-01-10T02:36:44;99754.00;;;7.30
75822;BMP180;64454;51.984;9.838;2023-01-10T02:39:22;99760.00;;;7.20
75822;BMP180;64454;51.984;9.838;2023-01-10T02:41:58;99750.00;;;7.40
75822;BMP180;64454;51.984;9.838;2023-01-10T02:44:34;99754.00;;;7.10
75822;BMP180;64454;51.984;9.838;2023-01-10T02:47:03;99761.00;;;7.20
75822;BMP180;64454;51.984;9.838;2023-01-10T02:49:41;99758.00;;;7.20
75822;BMP180;64454;51.984;9.838;2023-01-10T02:52:08;99763.00;;;7.30
75822;BMP180;64454;51.984;9.838;2023-01-10T02:54:36;99764.00;;;7.50
75822;BMP180;64454;51.984;9.838;2023-01-10T02:57:29;99768.00;;;7.40
75822;BMP180;64454;51.984;9.838;2023-01-10T03:00:34;99779.00;;;7.30
75822;BMP180;64454;51.984;9.838;2023-01-10T03:03:31;99776.00;;;7.30
75822;BMP180;64454;51.984;9.838;2023-01-10T03:06:15;99787.00;;;7.10
75822;BMP180;64454;51.984;9.838;2023-01-10T03:08:51;99792.00;;;7.10
75822;BMP180;64454;51.984;9.838;2023-01-10T03:11:25;99797.00;;;7.20
75822;BMP180;64454;51.984;9.838;2023-01-10T03:14:12;99799.00;;;7.30
75822;BMP180;64454;51.984;9.838;2023-01-10T03:16:45;99810.00;;;7.40
75822;BMP180;64454;51.984;9.838;2023-01-10T03:19:17;99817.00;;;7.20
75822;BMP180;64454;51.984;9.838;2023-01-10T03:21:52;99822.00;;;7.10
75822;BMP180;64454;51.984;9.838;2023-01-10T03:24:25;99827.00;;;7.30
75822;BMP180;64454;51.984;9.838;2023-01-10T03:27:01;99834.00;;;7.10
75822;BMP180;64454;51.984;9.838;2023-01-10T03:29:37;99836.00;;;7.20
75822;BMP180;64454;51.984;9.838;2023-01-10T03:32:09;99834.00;;;7.00
75822;BMP180;64454;51.984;9.838;2023-01-10T03:34:38;99838.00;;;7.10
75822;BMP180;64454;51.984;9.838;2023-01-10T03:37:12;99847.00;;;7.00
75822;BMP180;64454;51.984;9.838;2023-01-10T03:39:51;99855.00;;;7.20
75822;BMP180;64454;51.984;9.838;2023-01-10T03:42:26;99857.00;;;7.10
75822;BMP180;64454;51.984;9.838;2023-01-10T03:45:20;99859.00;;;7.10
75822;BMP180;64454;51.984;9.838;2023-01-10T03:47:50;99870.00;;;7.00
75822;BMP180;64454;51.984;9.838;2023-01-10T03:50:22;99880.00;;;6.90
75822;BMP180;64454;51.984;9.838;2023-01-10T03:52:51;99876.00;;;7.20
75822;BMP180;64454;51.984;9.838;2023-01-10T03:55:21;99879.00;;;7.10
75822;BMP180;64454;51.984;9.838;2023-01-10T03:57:48;99882.00;;;7.10
75822;BMP180;64454;51.984;9.838;2023-01-10T04:00:17;99885.00;;;7.10
75822;BMP180;64454;51.984;9.838;2023-01-10T04:02:44;99903.00;;;7.00
75822;BMP180;64454;51.984;9.838;2023-01-10T04:05:11;99895.00;;;7.10
75822;BMP180;64454;51.984;9.838;2023-01-10T04:07:38;99900.00;;;7.10
75822;BMP180;64454;51.984;9.838;2023-01-10T04:10:08;99907.00;;;7.20
75822;BMP180;64454;51.984;9.838;2023-01-10T04:12:34;99909.00;;;7.00
75822;BMP180;64454;51.984;9.838;2023-01-10T04:15:01;99914.00;;;7.10
75822;BMP180;64454;51.984;9.838;2023-01-10T04:17:28;99910.00;;;7.20
75822;BMP180;64454;51.984;9.838;2023-01-10T04:19:55;99920.00;;;7.30
75822;BMP180;64454;51.984;9.838;2023-01-10T04:22:22;99924.00;;;7.20
75822;BMP180;64454;51.984;9.838;2023-01-10T04:24:49;99927.00;;;7.20
75822;BMP180;64454;51.984;9.838;2023-01-10T04:27:19;99939.00;;;7.20
75822;BMP180;64454;51.984;9.838;2023-01-10T04:29:46;99945.00;;;7.30
75822;BMP180;64454;51.984;9.838;2023-01-10T04:32:13;99946.00;;;7.20
75822;BMP180;64454;51.984;9.838;2023-01-10T04:34:40;99947.00;;;7.10
75822;BMP180;64454;51.984;9.838;2023-01-10T04:37:06;99941.00;;;7.30
75822;BMP180;64454;51.984;9.838;2023-01-10T04:39:33;99953.00;;;7.10
75822;BMP180;64454;51.984;9.838;2023-01-10T04:42:00;99955.00;;;7.00
75822;BMP180;64454;51.984;9.838;2023-01-10T04:44:28;99957.00;;;7.20
75822;BMP180;64454;51.984;9.838;2023-01-10T04:46:55;99958.00;;;7.10
75822;BMP180;64454;51.984;9.838;2023-01-10T04:49:22;99966.00;;;7.10
75822;BMP180;64454;51.984;9.838;2023-01-10T04:51:48;99971.00;;;7.20
75822;BMP180;64454;51.984;9.838;2023-01-10T04:54:19;99962.00;;;7.10
75822;BMP180;64454;51.984;9.838;2023-01-10T04:56:46;99973.00;;;7.10
75822;BMP180;64454;51.984;9.838;2023-01-10T04:59:13;99970.00;;;7.00
75822;BMP180;64454;51.984;9.838;2023-01-10T05:01:41;99975.00;;;7.20
75822;BMP180;64454;51.984;9.838;2023-01-10T05:04:09;99979.00;;;6.90
75822;BMP180;64454;51.984;9.838;2023-01-10T05:06:36;99986.00;;;7.10
75822;BMP180;64454;51.984;9.838;2023-01-10T05:09:05;99981.00;;;7.20
75822;BMP180;64454;51.984;9.838;2023-01-10T05:11:32;99982.00;;;7.10
75822;BMP180;64454;51.984;9.838;2023-01-10T05:13:59;99980.00;;;6.80
75822;BMP180;64454;51.984;9.838;2023-01-10T05:16:26;99996.00;;;6.80
75822;BMP180;64454;51.984;9.838;2023-01-10T05:18:54;100001.00;;;6.90
75822;BMP180;64454;51.984;9.838;2023-01-10T05:21:21;100004.00;;;6.90
75822;BMP180;64454;51.984;9.838;2023-01-10T05:23:48;100003.00;;;7.00
75822;BMP180;64454;51.984;9.838;2023-01-10T05:26:22;100015.00;;;6.90
75822;BMP180;64454;51.984;9.838;2023-01-10T05:28:49;100019.00;;;7.10
75822;BMP180;64454;51.984;9.838;2023-01-10T05:31:18;100020.00;;;6.90
75822;BMP180;64454;51.984;9.838;2023-01-10T05:33:46;100023.00;;;6.80
75822;BMP180;64454;51.984;9.838;2023-01-10T05:36:15;100021.00;;;6.70
75822;BMP180;64454;51.984;9.838;2023-01-10T05:38:42;100041.00;;;6.60
75822;BMP180;64454;51.984;9.838;2023-01-10T05:41:09;100039.00;;;6.70
75822;BMP180;64454;51.984;9.838;2023-01-10T05:43:36;100043.00;;;6.80
75822;BMP180;64454;51.984;9.838;2023-01-10T05:46:03;100042.00;;;6.70
75822;BMP180;64454;51.984;9.838;2023-01-10T05:48:30;100051.00;;;6.60
75822;BMP180;64454;51.984;9.838;2023-01-10T05:50:57;100055.00;;;6.60
75822;BMP180;64454;51.984;9.838;2023-01-10T05:53:25;100064.00;;;6.40
75822;BMP180;64454;51.984;9.838;2023-01-10T05:55:54;100073.00;;;6.50
75822;BMP180;64454;51.984;9.838;2023-01-10T05:58:21;100076.00;;;6.50
75822;BMP180;64454;51.984;9.838;2023-01-10T06:00:49;100087.00;;;6.70
75822;BMP180;64454;51.984;9.838;2023-01-10T06:03:16;100092.00;;;6.60
75822;BMP180;64454;51.984;9.838;2023-01-10T06:05:43;100095.00;;;6.40
75822;BMP180;64454;51.984;9.838;2023-01-10T06:08:10;100107.00;;;6.60
75822;BMP180;64454;51.984;9.838;2023-01-10T06:10:38;100110.00;;;6.50
75822;BMP180;64454;51.984;9.838;2023-01-10T06:13:05;100107.00;;;6.70
75822;BMP180;64454;51.984;9.838;2023-01-10T06:15:32;100119.00;;;6.70
75822;BMP180;64454;51.984;9.838;2023-01-10T06:17:59;100119.00;;;6.60
75822;BMP180;64454;51.984;9.838;2023-01-10T06:20:25;100121.00;;;6.50
75822;BMP180;64454;51.984;9.838;2023-01-10T06:22:52;100131.00;;;6.70
75822;BMP180;64454;51.984;9.838;2023-01-10T06:25:19;100131.00;;;6.80
75822;BMP180;64454;51.984;9.838;2023-01-10T06:27:48;100141.00;;;6.80
75822;BMP180;64454;51.984;9.838;2023-01-10T06:30:15;100146.00;;;6.70
75822;BMP180;64454;51.984;9.838;2023-01-10T06:32:42;100156.00;;;6.70
75822;BMP180;64454;51.984;9.838;2023-01-10T06:35:09;100153.00;;;6.70
75822;BMP180;64454;51.984;9.838;2023-01-10T06:37:36;100149.00;;;7.00
75822;BMP180;64454;51.984;9.838;2023-01-10T06:40:04;100157.00;;;6.90
75822;BMP180;64454;51.984;9.838;2023-01-10T06:42:31;100156.00;;;6.90
75822;BMP180;64454;51.984;9.838;2023-01-10T06:44:59;100163.00;;;7.10
75822;BMP180;64454;51.984;9.838;2023-01-10T06:47:26;100155.00;;;7.10
75822;BMP180;64454;51.984;9.838;2023-01-10T06:49:53;100171.00;;;6.90
75822;BMP180;64454;51.984;9.838;2023-01-10T06:52:20;100169.00;;;7.00
75822;BMP180;64454;51.984;9.838;2023-01-10T06:54:46;100185.00;;;7.00
75822;BMP180;64454;51.984;9.838;2023-01-10T06:57:13;100182.00;;;6.90
75822;BMP180;64454;51.984;9.838;2023-01-10T06:59:40;100186.00;;;6.90
75822;BMP180;64454;51.984;9.838;2023-01-10T07:02:10;100188.00;;;7.00
75822;BMP180;64454;51.984;9.838;2023-01-10T07:04:37;100194.00;;;7.10
75822;BMP180;64454;51.984;9.838;2023-01-10T07:07:04;100197.00;;;7.10
75822;BMP180;64454;51.984;9.838;2023-01-10T07:09:31;100195.00;;;7.10
75822;BMP180;64454;51.984;9.838;2023-01-10T07:11:58;100203.00;;;7.20
75822;BMP180;64454;51.984;9.838;2023-01-10T07:14:25;100213.00;;;7.20
75822;BMP180;64454;51.984;9.838;2023-01-10T07:16:51;100204.00;;;7.30
75822;BMP180;64454;51.984;9.838;2023-01-10T07:19:20;100202.00;;;7.50
75822;BMP180;64454;51.984;9.838;2023-01-10T07:21:47;100218.00;;;7.30
75822;BMP180;64454;51.984;9.838;2023-01-10T07:24:13;100211.00;;;7.30
75822;BMP180;64454;51.984;9.838;2023-01-10T07:26:40;100204.00;;;7.10
75822;BMP180;64454;51.984;9.838;2023-01-10T07:29:08;100221.00;;;7.00
75822;BMP180;64454;51.984;9.838;2023-01-10T07:31:34;100220.00;;;7.20
75822;BMP180;64454;51.984;9.838;2023-01-10T07:34:01;100216.00;;;7.10
75822;BMP180;64454;51.984;9.838;2023-01-10T07:36:30;100222.00;;;6.90
75822;BMP180;64454;51.984;9.838;2023-01-10T07:38:56;100227.00;;;7.20
75822;BMP180;64454;51.984;9.838;2023-01-10T07:41:23;100233.00;;;7.20
75822;BMP180;64454;51.984;9.838;2023-01-10T07:43:50;100229.00;;;7.00
75822;BMP180;64454;51.984;9.838;2023-01-10T07:46:17;100224.00;;;6.80
75822;BMP180;64454;51.984;9.838;2023-01-10T07:48:43;100237.00;;;6.90
75822;BMP180;64454;51.984;9.838;2023-01-10T07:51:11;100242.00;;;6.90
75822;BMP180;64454;51.984;9.838;2023-01-10T07:53:39;100238.00;;;6.80
75822;BMP180;64454;51.984;9.838;2023-01-10T07:56:07;100242.00;;;7.00
75822;BMP180;64454;51.984;9.838;2023-01-10T07:58:34;100244.00;;;7.20
75822;BMP180;64454;51.984;9.838;2023-01-10T08:01:03;100253.00;;;7.10
75822;BMP180;64454;51.984;9.838;2023-01-10T08:03:31;100244.00;;;7.30
75822;BMP180;64454;51.984;9.838;2023-01-10T08:05:59;100241.00;;;7.20
75822;BMP180;64454;51.984;9.838;2023-01-10T08:08:27;100249.00;;;7.20
75822;BMP180;64454;51.984;9.838;2023-01-10T08:10:56;100255.00;;;7.30
75822;BMP180;64454;51.984;9.838;2023-01-10T08:13:24;100262.00;;;7.40
75822;BMP180;64454;51.984;9.838;2023-01-10T08:15:51;100259.00;;;7.50
75822;BMP180;64454;51.984;9.838;2023-01-10T08:18:20;100268.00;;;7.40
75822;BMP180;64454;51.984;9.838;2023-01-10T08:20:48;100269.00;;;7.30
75822;BMP180;64454;51.984;9.838;2023-01-10T08:23:15;100278.00;;;7.30
75822;BMP180;64454;51.984;9.838;2023-01-10T08:25:42;100288.00;;;7.20
75822;BMP180;64454;51.984;9.838;2023-01-10T08:28:11;100278.00;;;7.10
75822;BMP180;64454;51.984;9.838;2023-01-10T08:30:38;100279.00;;;7.10
75822;BMP180;64454;51.984;9.838;2023-01-10T08:33:07;100296.00;;;7.30
75822;BMP180;64454;51.984;9.838;2023-01-10T08:35:36;100288.00;;;7.40
75822;BMP180;64454;51.984;9.838;2023-01-10T08:38:03;100297.00;;;7.60
75822;BMP180;64454;51.984;9.838;2023-01-10T08:40:30;100307.00;;;7.40
75822;BMP180;64454;51.984;9.838;2023-01-10T08:42:57;100311.00;;;7.60
75822;BMP180;64454;51.984;9.838;2023-01-10T08:45:26;100316.00;;;7.40
75822;BMP180;64454;51.984;9.838;2023-01-10T08:47:53;100318.00;;;7.30
75822;BMP180;64454;51.984;9.838;2023-01-10T08:50:20;100314.00;;;7.20
75822;BMP180;64454;51.984;9.838;2023-01-10T08:52:47;100296.00;;;7.40
75822;BMP180;64454;51.984;9.838;2023-01-10T08:55:15;100284.00;;;7.20
75822;BMP180;64454;51.984;9.838;2023-01-10T08:57:42;100277.00;;;7.10
75822;BMP180;64454;51.984;9.838;2023-01-10T09:00:11;100288.00;;;7.40
75822;BMP180;64454;51.984;9.838;2023-01-10T09:02:40;100292.00;;;7.60
75822;BMP180;64454;51.984;9.838;2023-01-10T09:05:08;100287.00;;;7.70
75822;BMP180;64454;51.984;9.838;2023-01-10T09:07:35;100296.00;;;7.40
75822;BMP180;64454;51.984;9.838;2023-01-10T09:10:03;100294.00;;;7.50
75822;BMP180;64454;51.984;9.838;2023-01-10T09:12:30;100301.00;;;7.40
75822;BMP180;64454;51.984;9.838;2023-01-10T09:15:15;100289.00;;;7.40
75822;BMP180;64454;51.984;9.838;2023-01-10T09:17:43;100298.00;;;7.40
75822;BMP180;64454;51.984;9.838;2023-01-10T09:20:10;100307.00;;;7.40
75822;BMP180;64454;51.984;9.838;2023-01-10T09:22:38;100320.00;;;7.80
75822;BMP180;64454;51.984;9.838;2023-01-10T09:25:06;100336.00;;;7.90
75822;BMP180;64454;51.984;9.838;2023-01-10T09:27:33;100338.00;;;7.70
75822;BMP180;64454;51.984;9.838;2023-01-10T09:29:59;100345.00;;;7.80
75822;BMP180;64454;51.984;9.838;2023-01-10T09:32:26;100336.00;;;7.80
75822;BMP180;64454;51.984;9.838;2023-01-10T09:34:54;100345.00;;;7.90
75822;BMP180;64454;51.984;9.838;2023-01-10T09:37:21;100346.00;;;7.60
75822;BMP180;64454;51.984;9.838;2023-01-10T09:39:48;100345.00;;;7.70
75822;BMP180;64454;51.984;9.838;2023-01-10T09:42:33;100343.00;;;7.70
75822;BMP180;64454;51.984;9.838;2023-01-10T09:45:12;100354.00;;;7.70
75822;BMP180;64454;51.984;9.838;2023-01-10T09:47:50;100357.00;;;7.90
75822;BMP180;64454;51.984;9.838;2023-01-10T09:50:28;100357.00;;;7.70
75822;BMP180;64454;51.984;9.838;2023-01-10T09:53:03;100351.00;;;7.80
75822;BMP180;64454;51.984;9.838;2023-01-10T09:55:37;100355.00;;;7.90
75822;BMP180;64454;51.984;9.838;2023-01-10T09:58:10;100362.00;;;7.80
75822;BMP180;64454;51.984;9.838;2023-01-10T10:00:43;100372.00;;;7.80
75822;BMP180;64454;51.984;9.838;2023-01-10T10:03:21;100373.00;;;7.90
75822;BMP180;64454;51.984;9.838;2023-01-10T10:05:51;100374.00;;;7.90
75822;BMP180;64454;51.984;9.838;2023-01-10T10:08:19;100376.00;;;7.90
75822;BMP180;64454;51.984;9.838;2023-01-10T10:10:59;100371.00;;;7.90
75822;BMP180;64454;51.984;9.838;2023-01-10T10:13:41;100365.00;;;7.90
75822;BMP180;64454;51.984;9.838;2023-01-10T10:16:26;100365.00;;;7.80
75822;BMP180;64454;51.984;9.838;2023-01-10T10:19:08;100362.00;;;8.00
75822;BMP180;64454;51.984;9.838;2023-01-10T10:21:53;100364.00;;;7.60
75822;BMP180;64454;51.984;9.838;2023-01-10T10:24:42;100359.00;;;7.80
75822;BMP180;64454;51.984;9.838;2023-01-10T10:27:22;100364.00;;;7.90
75822;BMP180;64454;51.984;9.838;2023-01-10T10:30:15;100363.00;;;7.90
75822;BMP180;64454;51.984;9.838;2023-01-10T10:33:05;100367.00;;;8.10
75822;BMP180;64454;51.984;9.838;2023-01-10T10:35:42;100359.00;;;8.20
75822;BMP180;64454;51.984;9.838;2023-01-10T10:38:18;100366.00;;;8.30
75822;BMP180;64454;51.984;9.838;2023-01-10T10:40:49;100367.00;;;8.20
75822;BMP180;64454;51.984;9.838;2023-01-10T10:43:20;100363.00;;;7.90
75822;BMP180;64454;51.984;9.838;2023-01-10T10:45:54;100372.00;;;8.10
75822;BMP180;64454;51.984;9.838;2023-01-10T10:48:26;100366.00;;;8.10
75822;BMP180;64454;51.984;9.838;2023-01-10T10:51:03;100370.00;;;8.00
75822;BMP180;64454;51.984;9.838;2023-01-10T10:53:33;100374.00;;;8.30
75822;BMP180;64454;51.984;9.838;2023-01-10T10:56:03;100368.00;;;8.30
75822;BMP180;64454;51.984;9.838;2023-01-10T10:58:32;100370.00;;;8.30
75822;BMP180;64454;51.984;9.838;2023-01-10T11:00:59;100370.00;;;8.30
75822;BMP180;64454;51.984;9.838;2023-01-10T11:03:37;100378.00;;;8.10
75822;BMP180;64454;51.984;9.838;2023-01-10T11:06:07;100381.00;;;8.30
75822;BMP180;64454;51.984;9.838;2023-01-10T11:08:40;100382.00;;;8.20
75822;BMP180;64454;51.984;9.838;2023-01-10T11:11:18;100379.00;;;8.20
75822;BMP180;64454;51.984;9.838;2023-01-10T11:13:52;100383.00;;;7.90
75822;BMP180;64454;51.984;9.838;2023-01-10T11:16:26;100384.00;;;7.70
75822;BMP180;64454;51.984;9.838;2023-01-10T11:19:17;100393.00;;;7.60
75822;BMP180;64454;51.984;9.838;2023-01-10T11:21:49;100395.00;;;7.80
75822;BMP180;64454;51.984;9.838;2023-01-10T11:24:28;100378.00;;;7.90
75822;BMP180;64454;51.984;9.838;2023-01-10T11:26:57;100380.00;;;8.10
75822;BMP180;64454;51.984;9.838;2023-01-10T11:29:27;100377.00;;;8.40
75822;BMP180;64454;51.984;9.838;2023-01-10T11:32:07;100380.00;;;8.60
75822;BMP180;64454;51.984;9.838;2023-01-10T11:34:35;100372.00;;;8.80
75822;BMP180;64454;51.984;9.838;2023-01-10T11:37:17;100376.00;;;9.30
75822;BMP180;64454;51.984;9.838;2023-01-10T11:39:45;100366.00;;;9.70
75822;BMP180;64454;51.984;9.838;2023-01-10T11:42:26;100350.00;;;9.60
75822;BMP180;64454;51.984;9.838;2023-01-10T11:44:54;100366.00;;;10.20
75822;BMP180;64454;51.984;9.838;2023-01-10T11:47:21;100357.00;;;10.10
75822;BMP180;64454;51.984;9.838;2023-01-10T11:49:49;100351.00;;;9.70
75822;BMP180;64454;51.984;9.838;2023-01-10T11:52:26;100365.00;;;9.60
75822;BMP180;64454;51.984;9.838;2023-01-10T11:54:58;100351.00;;;9.70
75822;BMP180;64454;51.984;9.838;2023-01-10T11:57:29;100351.00;;;10.10
75822;BMP180;64454;51.984;9.838;2023-01-10T12:00:01;100362.00;;;10.50
75822;BMP180;64454;51.984;9.838;2023-01-10T12:02:34;100358.00;;;10.10
75822;BMP180;64454;51.984;9.838;2023-01-10T12:05:05;100362.00;;;9.90
75822;BMP180;64454;51.984;9.838;2023-01-10T12:07:53;100363.00;;;9.30
75822;BMP180;64454;51.984;9.838;2023-01-10T12:10:25;100368.00;;;9.00
75822;BMP180;64454;51.984;9.838;2023-01-10T12:12:54;100361.00;;;8.70
75822;BMP180;64454;51.984;9.838;2023-01-10T12:15:26;100358.00;;;8.40
75822;BMP180;64454;51.984;9.838;2023-01-10T12:17:56;100373.00;;;8.80
75822;BMP180;64454;51.984;9.838;2023-01-10T12:20:27;100369.00;;;8.50
75822;BMP180;64454;51.984;9.838;2023-01-10T12:22:59;100367.00;;;8.30
75822;BMP180;64454;51.984;9.838;2023-01-10T12:25:36;100370.00;;;8.10
75822;BMP180;64454;51.984;9.838;2023-01-10T12:28:16;100376.00;;;8.30
75822;BMP180;64454;51.984;9.838;2023-01-10T12:30:44;100367.00;;;8.20
75822;BMP180;64454;51.984;9.838;2023-01-10T12:33:21;100369.00;;;8.20
75822;BMP180;64454;51.984;9.838;2023-01-10T12:35:55;100366.00;;;8.20
75822;BMP180;64454;51.984;9.838;2023-01-10T12:38:31;100368.00;;;8.50
75822;BMP180;64454;51.984;9.838;2023-01-10T12:41:27;100373.00;;;8.60
75822;BMP180;64454;51.984;9.838;2023-01-10T12:44:18;100367.00;;;8.40
75822;BMP180;64454;51.984;9.838;2023-01-10T12:46:54;100381.00;;;8.30
75822;BMP180;64454;51.984;9.838;2023-01-10T12:49:25;100364.00;;;8.40
75822;BMP180;64454;51.984;9.838;2023-01-10T12:52:00;100371.00;;;8.60
75822;BMP180;64454;51.984;9.838;2023-01-10T12:54:29;100375.00;;;8.30
75822;BMP180;64454;51.984;9.838;2023-01-10T12:57:03;100370.00;;;8.40
75822;BMP180;64454;51.984;9.838;2023-01-10T12:59:37;100379.00;;;8.50
75822;BMP180;64454;51.984;9.838;2023-01-10T13:02:12;100370.00;;;8.50
75822;BMP180;64454;51.984;9.838;2023-01-10T13:04:43;100375.00;;;8.30
75822;BMP180;64454;51.984;9.838;2023-01-10T13:07:15;100374.00;;;8.20
75822;BMP180;64454;51.984;9.838;2023-01-10T13:09:44;100372.00;;;8.30
75822;BMP180;64454;51.984;9.838;2023-01-10T13:12:21;100364.00;;;8.40
75822;BMP180;64454;51.984;9.838;2023-01-10T13:14:58;100372.00;;;8.30
75822;BMP180;64454;51.984;9.838;2023-01-10T13:17:39;100373.00;;;8.10
75822;BMP180;64454;51.984;9.838;2023-01-10T13:20:39;100369.00;;;8.20
75822;BMP180;64454;51.984;9.838;2023-01-10T13:23:21;100370.00;;;8.30
75822;BMP180;64454;51.984;9.838;2023-01-10T13:25:57;100359.00;;;8.10
75822;BMP180;64454;51.984;9.838;2023-01-10T13:28:28;100350.00;;;8.30
75822;BMP180;64454;51.984;9.838;2023-01-10T13:30:58;100362.00;;;8.20
75822;BMP180;64454;51.984;9.838;2023-01-10T13:33:28;100351.00;;;8.40
75822;BMP180;64454;51.984;9.838;2023-01-10T13:36:07;100353.00;;;8.60
75822;BMP180;64454;51.984;9.838;2023-01-10T13:38:45;100347.00;;;8.40
75822;BMP180;64454;51.984;9.838;2023-01-10T13:41:13;100352.00;;;8.30
75822;BMP180;64454;51.984;9.838;2023-01-10T13:44:11;100350.00;;;8.50
75822;BMP180;64454;51.984;9.838;2023-01-10T13:46:44;100349.00;;;8.40
75822;BMP180;64454;51.984;9.838;2023-01-10T13:49:26;100350.00;;;8.50
75822;BMP180;64454;51.984;9.838;2023-01-10T13:52:31;100344.00;;;8.40
75822;BMP180;64454;51.984;9.838;2023-01-10T13:55:10;100353.00;;;8.30
75822;BMP180;64454;51.984;9.838;2023-01-10T13:57:51;100345.00;;;8.20
75822;BMP180;64454;51.984;9.838;2023-01-10T14:00:44;100350.00;;;8.30
75822;BMP180;64454;51.984;9.838;2023-01-10T14:03:42;100354.00;;;8.00
75822;BMP180;64454;51.984;9.838;2023-01-10T14:06:18;100359.00;;;8.10
75822;BMP180;64454;51.984;9.838;2023-01-10T14:08:52;100368.00;;;8.20
75822;BMP180;64454;51.984;9.838;2023-01-10T14:11:22;100364.00;;;8.10
75822;BMP180;64454;51.984;9.838;2023-01-10T14:13:53;100366.00;;;8.00
75822;BMP180;64454;51.984;9.838;2023-01-10T14:16:34;100367.00;;;7.90
75822;BMP180;64454;51.984;9.838;2023-01-10T14:19:05;100371.00;;;7.90
75822;BMP180;64454;51.984;9.838;2023-01-10T14:21:42;100373.00;;;7.90
75822;BMP180;64454;51.984;9.838;2023-01-10T14:24:23;100372.00;;;7.80
75822;BMP180;64454;51.984;9.838;2023-01-10T14:26:53;100370.00;;;7.80
75822;BMP180;64454;51.984;9.838;2023-01-10T14:29:21;100371.00;;;7.90
75822;BMP180;64454;51.984;9.838;2023-01-10T14:31:51;100357.00;;;8.00
75822;BMP180;64454;51.984;9.838;2023-01-10T14:34:23;100361.00;;;7.90
75822;BMP180;64454;51.984;9.838;2023-01-10T14:36:57;100351.00;;;7.70
75822;BMP180;64454;51.984;9.838;2023-01-10T14:39:26;100347.00;;;7.70
75822;BMP180;64454;51.984;9.838;2023-01-10T14:41:57;100337.00;;;7.90
75822;BMP180;64454;51.984;9.838;2023-01-10T14:44:31;100335.00;;;7.90